createdAt,value
2023-01-29T00:00:10.553Z,6.50
2023-01-29T00:02:40.871Z,5.30
2023-01-29T00:05:26.085Z,6.37
2023-01-29T00:07:56.381Z,7.00
2023-01-29T00:10:25.949Z,9.97
2023-01-29T00:12:53.719Z,8.07
2023-01-29T00:15:21.193Z,6.00
2023-01-29T00:17:48.782Z,6.47
2023-01-29T00:20:17.244Z,6.63
2023-01-29T00:22:45.151Z,9.33
2023-01-29T00:25:12.665Z,9.30
2023-01-29T00:27:40.181Z,10.27
2023-01-29T00:30:16.493Z,8.47
2023-01-29T00:32:45.548Z,7.37
2023-01-29T00:35:13.089Z,7.50
2023-01-29T00:37:40.580Z,6.07
2023-01-29T00:40:09.486Z,8.77
2023-01-29T00:42:56.017Z,7.83
2023-01-29T00:45:23.594Z,7.00
2023-01-29T00:47:51.147Z,5.40
2023-01-29T00:50:18.993Z,7.17
2023-01-29T00:52:48.612Z,6.93
2023-01-29T00:55:16.629Z,8.17
2023-01-29T00:57:44.119Z,6.97
2023-01-29T01:00:15.915Z,6.83
2023-01-29T01:03:01.951Z,7.97
2023-01-29T01:05:30.027Z,8.03
2023-01-29T01:07:59.279Z,6.10
2023-01-29T01:10:31.941Z,9.07
2023-01-29T01:13:06.691Z,7.43
2023-01-29T01:15:38.155Z,7.13
2023-01-29T01:18:06.556Z,6.90
2023-01-29T01:20:36.217Z,6.37
2023-01-29T01:23:03.879Z,5.77
2023-01-29T01:25:31.393Z,6.67
2023-01-29T01:28:02.825Z,7.17
2023-01-29T01:30:30.428Z,6.53
2023-01-29T01:32:58.041Z,8.53
2023-01-29T01:35:25.584Z,5.23
2023-01-29T01:37:53.113Z,10.13
2023-01-29T01:40:23.902Z,7.93
2023-01-29T01:42:57.806Z,6.40
2023-01-29T01:45:35.245Z,6.75
2023-01-29T01:48:23.635Z,13.87
2023-01-29T01:51:03.168Z,12.13
2023-01-29T01:53:43.543Z,12.07
2023-01-29T01:56:27.831Z,7.03
2023-01-29T01:58:58.423Z,8.37
2023-01-29T02:01:30.662Z,5.27
2023-01-29T02:04:23.311Z,8.57
2023-01-29T02:07:11.353Z,7.60
2023-01-29T02:09:58.766Z,7.33
2023-01-29T02:12:30.920Z,6.60
2023-01-29T02:14:59.555Z,6.33
2023-01-29T02:17:27.117Z,9.53
2023-01-29T02:20:19.741Z,7.03
2023-01-29T02:23:15.799Z,6.73
2023-01-29T02:26:02.051Z,6.67
2023-01-29T02:28:43.373Z,7.67
2023-01-29T02:31:43.581Z,9.03
2023-01-29T02:34:22.346Z,5.83
2023-01-29T02:37:09.400Z,5.23
2023-01-29T02:40:14.958Z,8.60
2023-01-29T02:43:41.158Z,8.63
2023-01-29T02:46:18.644Z,5.93
2023-01-29T02:49:15.745Z,7.80
2023-01-29T02:51:54.686Z,7.67
2023-01-29T02:54:30.792Z,8.33
2023-01-29T02:57:29.084Z,7.80
2023-01-29T03:00:11.818Z,9.43
2023-01-29T03:03:02.821Z,7.30
2023-01-29T03:05:51.096Z,8.60
2023-01-29T03:08:37.200Z,8.40
2023-01-29T03:11:07.113Z,9.30
2023-01-29T03:13:57.456Z,5.67
2023-01-29T03:16:33.101Z,6.23
2023-01-29T03:19:19.211Z,6.67
2023-01-29T03:21:59.560Z,6.67
2023-01-29T03:25:16.844Z,7.80
2023-01-29T03:28:17.112Z,9.10
2023-01-29T03:31:19.083Z,8.70
2023-01-29T03:34:03.888Z,8.75
2023-01-29T03:36:45.287Z,5.63
2023-01-29T03:39:15.473Z,7.30
2023-01-29T03:42:04.837Z,9.67
2023-01-29T03:44:46.975Z,7.23
2023-01-29T03:47:51.306Z,5.50
2023-01-29T03:50:53.219Z,6.67
2023-01-29T03:53:57.807Z,8.07
2023-01-29T03:56:45.375Z,9.77
2023-01-29T03:59:39.986Z,6.37
2023-01-29T04:03:16.613Z,5.80
2023-01-29T04:06:16.373Z,8.00
2023-01-29T04:09:34.268Z,7.03
2023-01-29T04:12:11.575Z,6.77
2023-01-29T04:14:42.762Z,6.10
2023-01-29T04:17:38.600Z,7.60
2023-01-29T04:20:16.113Z,6.43
2023-01-29T04:22:48.538Z,9.63
2023-01-29T04:25:29.432Z,6.20
2023-01-29T04:28:24.381Z,6.63
2023-01-29T04:30:58.523Z,7.50
2023-01-29T04:33:36.129Z,7.40
2023-01-29T04:36:16.758Z,7.13
2023-01-29T04:39:24.498Z,7.13
2023-01-29T04:42:00.945Z,8.27
2023-01-29T04:44:42.306Z,8.87
2023-01-29T04:47:48.490Z,8.17
2023-01-29T04:50:32.248Z,6.50
2023-01-29T04:53:40.392Z,8.23
2023-01-29T04:56:34.478Z,7.27
2023-01-29T04:59:11.422Z,7.50
2023-01-29T05:01:39.352Z,7.57
2023-01-29T05:04:13.311Z,10.23
2023-01-29T05:06:42.516Z,6.22
2023-01-29T05:09:12.764Z,13.20
2023-01-29T05:11:41.344Z,8.80
2023-01-29T05:14:14.547Z,7.87
2023-01-29T05:16:51.495Z,7.45
2023-01-29T05:19:19.117Z,8.03
2023-01-29T05:21:49.759Z,9.20
2023-01-29T05:24:23.539Z,7.93
2023-01-29T05:27:13.029Z,10.30
2023-01-29T05:29:46.915Z,8.03
2023-01-29T05:32:15.935Z,6.78
2023-01-29T05:34:43.496Z,6.57
2023-01-29T05:37:11.161Z,9.63
2023-01-29T05:39:38.687Z,6.20
2023-01-29T05:42:06.292Z,9.47
2023-01-29T05:44:33.886Z,6.57
2023-01-29T05:47:02.746Z,6.50
2023-01-29T05:49:30.283Z,6.73
2023-01-29T05:51:57.764Z,8.23
2023-01-29T05:54:25.230Z,8.33
2023-01-29T05:56:52.730Z,9.93
2023-01-29T05:59:20.497Z,7.50
2023-01-29T06:01:49.140Z,7.57
2023-01-29T06:04:16.629Z,7.93
2023-01-29T06:06:44.138Z,8.00
2023-01-29T06:09:12.034Z,7.73
2023-01-29T06:11:40.121Z,6.63
2023-01-29T06:14:07.810Z,8.13
2023-01-29T06:16:35.373Z,8.40
2023-01-29T06:19:02.980Z,8.67
2023-01-29T06:21:30.661Z,8.47
2023-01-29T06:23:58.387Z,9.53
2023-01-29T06:26:25.922Z,6.17
2023-01-29T06:28:53.514Z,8.97
2023-01-29T06:31:36.640Z,8.03
2023-01-29T06:34:05.907Z,7.50
2023-01-29T06:36:33.540Z,6.93
2023-01-29T06:39:01.072Z,10.47
2023-01-29T06:41:28.722Z,9.87
2023-01-29T06:43:56.236Z,9.33
2023-01-29T06:46:23.714Z,7.33
2023-01-29T06:48:51.327Z,7.93
2023-01-29T06:51:18.866Z,6.83
2023-01-29T06:53:46.928Z,9.23
2023-01-29T06:56:14.596Z,8.27
2023-01-29T06:58:43.500Z,8.83
2023-01-29T07:01:25.373Z,6.20
2023-01-29T07:04:00.557Z,6.43
2023-01-29T07:06:31.445Z,7.67
2023-01-29T07:08:59.042Z,10.87
2023-01-29T07:11:26.528Z,11.33
2023-01-29T07:13:54.032Z,6.97
2023-01-29T07:16:21.614Z,7.67
2023-01-29T07:18:49.348Z,8.23
2023-01-29T07:21:16.830Z,8.00
2023-01-29T07:23:44.398Z,6.37
2023-01-29T07:26:12.309Z,6.27
2023-01-29T07:28:40.743Z,6.67
2023-01-29T07:31:11.944Z,8.10
2023-01-29T07:33:39.656Z,6.60
2023-01-29T07:36:11.475Z,6.50
2023-01-29T07:38:39.050Z,8.23
2023-01-29T07:41:06.620Z,8.57
2023-01-29T07:43:34.129Z,8.17
2023-01-29T07:46:03.735Z,8.47
2023-01-29T07:48:31.271Z,8.53
2023-01-29T07:50:59.071Z,8.83
2023-01-29T07:53:28.219Z,8.57
2023-01-29T07:55:56.418Z,11.40
2023-01-29T07:58:24.085Z,12.43
2023-01-29T08:00:51.670Z,11.77
2023-01-29T08:03:22.871Z,29.50
2023-01-29T08:05:50.444Z,20.70
2023-01-29T08:08:19.368Z,13.90
2023-01-29T08:10:46.981Z,10.73
2023-01-29T08:13:14.593Z,30.83
2023-01-29T08:15:45.993Z,55.70
2023-01-29T08:18:14.598Z,27.47
2023-01-29T08:20:42.150Z,17.10
2023-01-29T08:23:15.767Z,14.00
2023-01-29T08:25:43.843Z,9.68
2023-01-29T08:28:12.327Z,14.87
2023-01-29T08:30:40.354Z,51.47
2023-01-29T08:33:07.968Z,52.37
2023-01-29T08:35:35.844Z,14.43
2023-01-29T08:38:04.851Z,9.50
2023-01-29T08:40:34.354Z,9.10
2023-01-29T08:43:06.890Z,15.00
2023-01-29T08:45:39.886Z,9.05
2023-01-29T08:48:08.266Z,8.50
2023-01-29T08:50:36.786Z,6.60
2023-01-29T08:53:07.945Z,6.77
2023-01-29T08:55:40.045Z,6.43
2023-01-29T08:58:10.737Z,7.43
2023-01-29T09:00:39.229Z,6.87
2023-01-29T09:03:07.910Z,6.13
2023-01-29T09:05:38.007Z,7.27
2023-01-29T09:08:06.856Z,7.17
2023-01-29T09:10:35.504Z,6.93
2023-01-29T09:13:03.384Z,8.40
2023-01-29T09:15:31.155Z,6.47
2023-01-29T09:18:02.322Z,12.03
2023-01-29T09:20:29.858Z,13.27
2023-01-29T09:22:59.051Z,7.83
2023-01-29T09:25:26.599Z,7.40
2023-01-29T09:27:54.609Z,9.30
2023-01-29T09:30:22.167Z,9.53
2023-01-29T09:32:54.267Z,9.60
2023-01-29T09:35:23.179Z,8.47
2023-01-29T09:37:52.059Z,8.20
2023-01-29T09:40:52.342Z,9.50
2023-01-29T09:43:53.058Z,8.60
2023-01-29T09:46:40.677Z,10.53
2023-01-29T09:49:15.316Z,17.37
2023-01-29T09:51:50.315Z,9.40
2023-01-29T09:54:50.713Z,11.33
2023-01-29T09:57:30.575Z,10.30
2023-01-29T09:59:58.098Z,8.83
2023-01-29T10:02:55.868Z,8.37
2023-01-29T10:05:40.166Z,10.53
2023-01-29T10:11:52.758Z,8.60
2023-01-29T10:15:05.175Z,7.40
2023-01-29T10:17:53.064Z,9.23
2023-01-29T10:21:08.695Z,11.03
2023-01-29T10:23:50.213Z,22.27
2023-01-29T10:26:21.054Z,10.53
2023-01-29T10:28:52.706Z,8.83
2023-01-29T10:31:33.250Z,8.90
2023-01-29T10:34:24.979Z,8.53
2023-01-29T10:36:55.115Z,12.93
2023-01-29T10:39:26.252Z,11.47
2023-01-29T10:42:25.578Z,11.97
2023-01-29T10:45:17.612Z,9.87
2023-01-29T10:48:09.652Z,11.23
2023-01-29T10:50:47.009Z,11.43
2023-01-29T10:53:48.437Z,11.87
2023-01-29T10:56:55.220Z,11.13
2023-01-29T10:59:55.368Z,10.27
2023-01-29T11:02:22.943Z,10.07
2023-01-29T11:04:50.709Z,10.30
2023-01-29T11:07:21.890Z,11.67
2023-01-29T11:09:56.573Z,10.23
2023-01-29T11:12:31.007Z,13.13
2023-01-29T11:15:04.115Z,12.17
2023-01-29T11:17:31.626Z,12.50
2023-01-29T11:19:59.096Z,8.77
2023-01-29T11:22:29.686Z,12.07
2023-01-29T11:25:20.186Z,9.00
2023-01-29T11:27:57.354Z,8.47
2023-01-29T11:30:35.550Z,10.93
2023-01-29T11:33:23.608Z,11.90
2023-01-29T11:35:52.611Z,9.80
2023-01-29T11:38:27.429Z,11.30
2023-01-29T11:41:22.492Z,13.10
2023-01-29T11:43:49.993Z,11.73
2023-01-29T11:46:17.575Z,11.30
2023-01-29T11:48:47.824Z,11.37
2023-01-29T11:51:27.216Z,9.87
2023-01-29T11:54:02.725Z,10.03
2023-01-29T11:56:42.801Z,10.63
2023-01-29T11:59:49.956Z,11.73
2023-01-29T12:02:38.776Z,10.93
2023-01-29T12:05:22.581Z,8.50
2023-01-29T12:07:57.095Z,10.00
2023-01-29T12:10:37.669Z,9.70
2023-01-29T12:13:10.951Z,11.10
2023-01-29T12:15:40.386Z,17.77
2023-01-29T12:18:26.253Z,25.10
2023-01-29T12:20:58.611Z,14.40
2023-01-29T12:24:02.200Z,13.80
2023-01-29T12:26:53.219Z,13.33
2023-01-29T12:29:35.285Z,11.17
2023-01-29T12:32:26.256Z,10.07
2023-01-29T12:35:23.694Z,8.60
2023-01-29T12:38:14.502Z,11.77
2023-01-29T12:41:08.164Z,10.43
2023-01-29T12:44:01.448Z,12.50
2023-01-29T12:46:43.820Z,9.77
2023-01-29T12:49:18.562Z,13.47
2023-01-29T12:52:25.182Z,9.87
2023-01-29T12:55:02.555Z,12.30
2023-01-29T12:57:58.504Z,12.03
2023-01-29T13:00:37.564Z,11.07
2023-01-29T13:03:23.237Z,14.27
2023-01-29T13:06:14.712Z,9.70
2023-01-29T13:08:51.423Z,11.53
2023-01-29T13:11:27.159Z,11.13
2023-01-29T13:14:19.389Z,12.93
2023-01-29T13:16:54.294Z,13.97
2023-01-29T13:19:38.186Z,11.30
2023-01-29T13:22:27.757Z,10.48
2023-01-29T13:25:04.625Z,12.17
2023-01-29T13:27:35.328Z,10.63
2023-01-29T13:30:03.838Z,11.27
2023-01-29T13:32:35.029Z,10.07
2023-01-29T13:35:14.033Z,10.00
2023-01-29T13:37:49.502Z,13.37
2023-01-29T13:40:28.937Z,10.37
2023-01-29T13:43:00.255Z,9.40
2023-01-29T13:45:44.255Z,9.97
2023-01-29T13:48:43.245Z,14.50
2023-01-29T13:51:16.971Z,13.63
2023-01-29T13:54:16.566Z,11.27
2023-01-29T13:57:01.087Z,10.50
2023-01-29T13:59:55.263Z,10.27
2023-01-29T14:02:29.545Z,11.70
2023-01-29T14:05:31.120Z,12.60
2023-01-29T14:08:14.224Z,10.23
2023-01-29T14:10:44.843Z,19.13
2023-01-29T14:13:18.505Z,15.27
2023-01-29T14:16:09.511Z,12.32
2023-01-29T14:18:56.469Z,12.40
2023-01-29T14:21:30.506Z,12.33
2023-01-29T14:26:49.421Z,12.60
2023-01-29T14:29:39.751Z,8.53
2023-01-29T14:32:07.147Z,9.13
2023-01-29T14:34:41.479Z,10.80
2023-01-29T14:37:14.991Z,13.20
2023-01-29T14:40:11.661Z,13.88
2023-01-29T14:42:52.385Z,11.93
2023-01-29T14:45:39.839Z,10.97
2023-01-29T14:48:48.569Z,10.67
2023-01-29T14:51:17.923Z,12.97
2023-01-29T14:54:26.677Z,9.63
2023-01-29T14:57:05.058Z,15.13
2023-01-29T14:59:46.308Z,9.17
2023-01-29T15:02:26.876Z,7.40
2023-01-29T15:04:58.668Z,7.37
2023-01-29T15:07:38.644Z,7.43
2023-01-29T15:10:25.077Z,9.17
2023-01-29T15:13:14.128Z,7.00
2023-01-29T15:15:51.060Z,13.63
2023-01-29T15:18:50.421Z,15.17
2023-01-29T15:21:19.332Z,13.67
2023-01-29T15:23:48.734Z,12.30
2023-01-29T15:26:23.513Z,10.17
2023-01-29T15:29:04.207Z,10.77
2023-01-29T15:31:33.056Z,8.47
2023-01-29T15:34:06.223Z,9.63
2023-01-29T15:36:34.155Z,7.68
2023-01-29T15:39:28.408Z,11.57
2023-01-29T15:42:21.548Z,10.77
2023-01-29T15:44:49.115Z,9.03
2023-01-29T15:47:16.692Z,7.57
2023-01-29T15:49:46.850Z,7.13
2023-01-29T15:52:26.659Z,7.43
2023-01-29T15:54:57.407Z,7.20
2023-01-29T15:57:37.190Z,10.17
2023-01-29T16:00:07.287Z,8.77
2023-01-29T16:02:41.661Z,9.85
2023-01-29T16:05:17.754Z,9.37
2023-01-29T16:07:46.692Z,8.03
2023-01-29T16:10:28.220Z,10.53
2023-01-29T16:12:56.727Z,8.60
2023-01-29T16:15:32.247Z,8.33
2023-01-29T16:18:02.322Z,7.63
2023-01-29T16:20:42.819Z,8.13
2023-01-29T16:23:25.320Z,8.13
2023-01-29T16:25:54.073Z,9.97
2023-01-29T16:28:21.723Z,8.00
2023-01-29T16:30:59.965Z,8.53
2023-01-29T16:33:36.827Z,10.70
2023-01-29T16:36:23.215Z,6.57
2023-01-29T16:38:59.865Z,8.30
2023-01-29T16:41:36.013Z,8.17
2023-01-29T16:44:15.659Z,7.87
2023-01-29T16:46:48.447Z,9.67
2023-01-29T16:49:31.308Z,9.57
2023-01-29T16:52:31.530Z,9.47
2023-01-29T16:55:13.257Z,9.73
2023-01-29T16:57:42.266Z,24.13
2023-01-29T17:00:30.120Z,39.30
2023-01-29T17:03:07.736Z,24.03
2023-01-29T17:05:37.696Z,23.23
2023-01-29T17:08:06.723Z,12.60
2023-01-29T17:10:35.888Z,10.67
2023-01-29T17:13:15.100Z,11.00
2023-01-29T17:15:45.281Z,11.83
2023-01-29T17:18:21.409Z,11.57
2023-01-29T17:20:50.378Z,9.43
2023-01-29T17:23:17.888Z,8.73
2023-01-29T17:25:46.849Z,7.37
2023-01-29T17:28:17.212Z,7.33
2023-01-29T17:30:56.679Z,9.83
2023-01-29T17:33:32.689Z,10.97
2023-01-29T17:36:00.207Z,10.63
2023-01-29T17:38:27.802Z,7.50
2023-01-29T17:41:06.095Z,8.70
2023-01-29T17:43:34.190Z,7.90
2023-01-29T17:46:01.747Z,9.53
2023-01-29T17:48:31.035Z,8.37
2023-01-29T17:51:03.474Z,9.00
2023-01-29T17:53:45.662Z,10.23
2023-01-29T17:56:27.322Z,14.17
2023-01-29T17:58:54.855Z,12.43
2023-01-29T18:01:22.420Z,9.47
2023-01-29T18:03:50.064Z,9.70
2023-01-29T18:06:28.259Z,9.77
2023-01-29T18:08:58.835Z,9.43
2023-01-29T18:11:26.804Z,8.97
2023-01-29T18:13:55.239Z,8.60
2023-01-29T18:16:24.204Z,8.50
2023-01-29T18:18:52.477Z,10.70
2023-01-29T18:21:19.975Z,22.30
2023-01-29T18:23:47.496Z,12.87
2023-01-29T18:26:16.944Z,9.80
2023-01-29T18:28:45.063Z,9.33
2023-01-29T18:31:14.329Z,11.23
2023-01-29T18:33:42.062Z,8.13
2023-01-29T18:36:09.634Z,11.03
2023-01-29T18:38:37.168Z,9.93
2023-01-29T18:41:13.011Z,7.63
2023-01-29T18:43:41.698Z,36.07
2023-01-29T18:46:09.861Z,14.97
2023-01-29T18:48:37.497Z,11.80
2023-01-29T18:51:05.442Z,11.87
2023-01-29T18:53:33.427Z,9.37
2023-01-29T18:56:05.618Z,9.10
2023-01-29T18:58:35.964Z,9.97
2023-01-29T19:01:10.691Z,12.73
2023-01-29T19:03:40.720Z,10.37
2023-01-29T19:06:10.565Z,9.97
2023-01-29T19:08:38.169Z,10.83
2023-01-29T19:11:08.027Z,12.27
2023-01-29T19:13:36.926Z,15.67
2023-01-29T19:16:12.497Z,14.37
2023-01-29T19:18:40.252Z,15.73
2023-01-29T19:21:16.161Z,42.87
2023-01-29T19:23:44.843Z,25.77
2023-01-29T19:26:13.398Z,22.80
2023-01-29T19:28:41.799Z,27.80
2023-01-29T19:31:09.697Z,21.07
2023-01-29T19:33:37.389Z,15.00
2023-01-29T19:36:05.551Z,16.87
2023-01-29T19:38:37.651Z,11.73
2023-01-29T19:41:05.371Z,13.10
2023-01-29T19:43:33.476Z,11.83
2023-01-29T19:46:01.957Z,12.33
2023-01-29T19:48:29.867Z,11.57
2023-01-29T19:51:00.736Z,11.77
2023-01-29T19:53:29.378Z,11.20
2023-01-29T19:56:08.724Z,12.27
2023-01-29T19:58:37.302Z,11.57
2023-01-29T20:01:17.078Z,12.50
2023-01-29T20:03:48.956Z,12.70
2023-01-29T20:06:20.247Z,14.20
2023-01-29T20:08:47.863Z,13.40
2023-01-29T20:11:17.646Z,10.60
2023-01-29T20:13:48.482Z,12.30
2023-01-29T20:16:17.643Z,10.83
2023-01-29T20:18:45.182Z,10.70
2023-01-29T20:21:16.457Z,11.10
2023-01-29T20:23:45.882Z,10.90
2023-01-29T20:26:16.563Z,13.70
2023-01-29T20:28:47.222Z,11.80
2023-01-29T20:31:15.970Z,10.93
2023-01-29T20:33:44.234Z,12.00
2023-01-29T20:36:13.394Z,11.73
2023-01-29T20:38:41.004Z,12.53
2023-01-29T20:41:13.189Z,13.87
2023-01-29T20:43:42.369Z,12.87
2023-01-29T20:46:10.833Z,9.93
2023-01-29T20:48:38.731Z,9.87
2023-01-29T20:51:15.564Z,11.57
2023-01-29T20:53:45.606Z,11.80
2023-01-29T20:56:16.206Z,11.93
2023-01-29T20:58:44.831Z,8.50
2023-01-29T21:01:15.794Z,11.87
2023-01-29T21:03:44.136Z,13.93
2023-01-29T21:06:12.721Z,13.00
2023-01-29T21:08:40.754Z,12.70
2023-01-29T21:11:09.483Z,12.67
2023-01-29T21:13:37.596Z,14.50
2023-01-29T21:16:05.759Z,11.87
2023-01-29T21:18:33.435Z,12.23
2023-01-29T21:21:00.940Z,14.10
2023-01-29T21:23:28.566Z,14.07
2023-01-29T21:26:04.713Z,17.73
2023-01-29T21:28:32.471Z,15.00
2023-01-29T21:31:09.912Z,14.07
2023-01-29T21:33:38.368Z,16.10
2023-01-29T21:36:06.731Z,22.10
2023-01-29T21:38:34.266Z,15.23
2023-01-29T21:41:04.568Z,16.47
2023-01-29T21:43:32.275Z,16.07
2023-01-29T21:46:11.563Z,14.60
2023-01-29T21:48:40.239Z,17.10
2023-01-29T21:51:08.215Z,14.33
2023-01-29T21:53:36.717Z,16.27
2023-01-29T21:56:05.635Z,17.27
2023-01-29T21:58:33.255Z,18.37
2023-01-29T22:01:36.850Z,25.20
2023-01-29T22:03:48.331Z,21.53
2023-01-29T22:06:15.989Z,18.37
2023-01-29T22:08:43.553Z,19.97
2023-01-29T22:11:11.301Z,20.47
2023-01-29T22:13:38.997Z,19.00
2023-01-29T22:16:07.045Z,23.50
2023-01-29T22:18:34.793Z,21.47
2023-01-29T22:21:05.203Z,17.20
2023-01-29T22:23:33.054Z,16.37
2023-01-29T22:26:08.888Z,15.83
2023-01-29T22:28:36.517Z,14.20
2023-01-29T22:31:05.412Z,15.27
2023-01-29T22:33:33.893Z,17.83
2023-01-29T22:36:02.088Z,15.80
2023-01-29T22:38:30.000Z,14.00
2023-01-29T22:40:59.561Z,14.87
2023-01-29T22:43:27.248Z,14.30
2023-01-29T22:45:56.234Z,17.70
2023-01-29T22:48:23.838Z,13.43
2023-01-29T22:51:19.457Z,13.87
2023-01-29T22:53:52.708Z,13.57
2023-01-29T22:56:25.219Z,16.48
2023-01-29T22:58:58.586Z,14.07
2023-01-29T23:01:29.883Z,12.88
2023-01-29T23:03:57.938Z,13.57
2023-01-29T23:06:25.460Z,13.33
2023-01-29T23:08:53.016Z,10.23
2023-01-29T23:11:23.394Z,13.13
2023-01-29T23:13:53.737Z,11.67
2023-01-29T23:16:27.959Z,12.47
2023-01-29T23:18:56.568Z,10.77
2023-01-29T23:21:25.861Z,10.47
2023-01-29T23:23:55.280Z,11.17
2023-01-29T23:26:41.514Z,10.70
2023-01-29T23:29:09.803Z,12.03
2023-01-29T23:31:37.443Z,11.97
2023-01-29T23:34:05.376Z,13.87
2023-01-29T23:36:32.942Z,13.97
2023-01-29T23:39:00.453Z,14.90
2023-01-29T23:41:27.946Z,13.47
2023-01-29T23:43:55.480Z,17.50
2023-01-29T23:46:23.295Z,13.13
2023-01-29T23:48:51.072Z,14.20
2023-01-29T23:51:18.682Z,14.90
2023-01-29T23:53:46.363Z,11.43
2023-01-29T23:56:13.931Z,14.17
2023-01-29T23:58:41.507Z,17.20
